Time;durP1;ratioP1;P1;durP2;ratioP2;P2;SDS_P1;SDS_P2;PMS_P1;PMS_P2;Temp;Humidity;BMP_temperature;BMP_pressure;BME280_temperature;BME280_humidity;BME280_pressure;Samples;Min_cycle;Max_cycle;Signal;HPM_P1;HPM_P2
2023/03/23 00:01:36;;;;;;;0.93;0.50;;;;;;;17.75;64.65;99704.75;20733048;28;20012;-83
2023/03/23 00:11:38;;;;;;;1.33;0.60;;;;;;;18.10;64.10;99758.53;20749846;28;20049;-82
2023/03/23 00:21:41;;;;;;;0.77;0.60;;;;;;;17.79;64.18;99698.03;20718108;28;20100;-83
2023/03/23 00:31:46;;;;;;;1.13;0.65;;;;;;;18.09;64.27;99735.28;20713618;28;20048;-82
2023/03/23 00:41:47;;;;;;;0.85;0.60;;;;;;;18.05;64.10;99724.00;20747612;28;20057;-83
2023/03/23 00:51:48;;;;;;;0.93;0.60;;;;;;;18.08;64.21;99733.59;20724202;28;20049;-83
2023/03/23 01:01:57;;;;;;;1.63;1.13;;;;;;;18.02;64.23;99728.88;20687516;28;20041;-83
2023/03/23 01:11:58;;;;;;;0.80;0.50;;;;;;;17.87;64.15;99682.88;20725492;28;20049;-83
2023/03/23 01:21:58;;;;;;;1.75;0.55;;;;;;;18.02;64.02;99702.78;20718850;28;20481;-82
2023/03/23 01:31:59;;;;;;;1.25;0.75;;;;;;;18.06;64.08;99681.75;20696146;28;20076;-83
2023/03/23 01:42:00;;;;;;;0.80;0.63;;;;;;;17.98;63.87;99669.94;20719807;28;20042;-83
2023/03/23 01:52:07;;;;;;;1.48;1.08;;;;;;;18.06;63.52;99687.97;20689632;28;20128;-83
2023/03/23 02:02:10;;;;;;;1.00;0.68;;;;;;;18.07;63.57;99680.75;20707675;28;20049;-83
2023/03/23 02:12:12;;;;;;;1.02;0.60;;;;;;;18.06;63.54;99652.13;20724704;28;20067;-83
2023/03/23 02:22:38;;;;;;;1.05;0.60;;;;;;;18.05;63.47;99653.97;20718680;28;20061;-83
2023/03/23 02:33:17;;;;;;;1.00;0.50;;;;;;;18.04;63.35;99649.59;20737372;28;20453;-83
2023/03/23 02:43:21;;;;;;;0.82;0.82;;;;;;;18.05;63.00;99639.69;20724932;28;20499;-83
2023/03/23 02:53:24;;;;;;;1.15;0.90;;;;;;;17.88;62.87;99598.41;20679601;28;20099;-83
2023/03/23 03:03:30;;;;;;;1.40;0.70;;;;;;;17.90;62.91;99601.78;20737611;28;20053;-83
2023/03/23 03:13:47;;;;;;;0.87;0.50;;;;;;;18.04;62.89;99616.47;20713920;28;20939;-83
2023/03/23 03:23:51;;;;;;;1.00;0.52;;;;;;;17.96;62.82;99598.41;20699484;28;20045;-83
2023/03/23 03:33:51;;;;;;;0.85;0.75;;;;;;;17.94;62.65;99587.81;20701927;28;20096;-82
2023/03/23 03:43:52;;;;;;;1.33;0.80;;;;;;;17.94;62.59;99576.19;20714776;28;20529;-83
2023/03/23 03:53:54;;;;;;;1.55;0.77;;;;;;;17.93;62.54;99571.81;20748366;28;20050;-83
2023/03/23 04:03:55;;;;;;;0.88;0.60;;;;;;;18.03;62.49;99585.97;20732116;28;20249;-83
2023/03/23 04:14:08;;;;;;;1.20;0.90;;;;;;;18.03;62.38;99574.38;20715475;28;20034;-83
2023/03/23 04:24:21;;;;;;;1.05;0.90;;;;;;;17.97;62.68;99573.16;20725956;28;20425;-83
2023/03/23 04:34:23;;;;;;;0.93;0.60;;;;;;;18.02;62.29;99573.53;20742620;28;20041;-83
2023/03/23 04:44:27;;;;;;;1.15;0.80;;;;;;;18.02;62.26;99560.06;20713705;28;20050;-83
2023/03/23 04:54:36;;;;;;;0.75;0.65;;;;;;;17.86;62.16;99543.91;20706143;28;20035;-83
2023/03/23 05:04:37;;;;;;;0.85;0.63;;;;;;;17.98;62.27;99554.16;20692326;28;20081;-83
2023/03/23 05:14:43;;;;;;;2.20;0.88;;;;;;;17.98;62.41;99599.06;20699711;28;20092;-83
2023/03/23 05:24:48;;;;;;;1.43;1.20;;;;;;;17.90;62.24;99597.25;20681751;28;20073;-83
2023/03/23 05:34:48;;;;;;;1.67;0.73;;;;;;;18.01;62.48;99620.31;20711998;28;20065;-83
2023/03/23 05:44:50;;;;;;;0.60;0.60;;;;;;;17.89;62.41;99616.25;20722833;28;20482;-83
2023/03/23 05:54:51;;;;;;;1.40;0.63;;;;;;;17.95;62.41;99639.81;20684163;28;20081;-83
2023/03/23 06:04:58;;;;;;;1.48;0.80;;;;;;;18.01;62.59;99647.25;20670140;28;20042;-81
2023/03/23 06:15:07;;;;;;;1.23;0.70;;;;;;;17.90;62.24;99645.72;20685310;28;20129;-81
2023/03/23 06:25:27;;;;;;;1.58;0.70;;;;;;;18.09;62.52;99676.03;20717982;28;20050;-81
2023/03/23 06:35:28;;;;;;;0.85;0.70;;;;;;;18.14;62.10;99689.00;20711787;28;20042;-81
2023/03/23 06:45:30;;;;;;;1.08;0.75;;;;;;;18.22;61.93;99707.88;20717905;28;20057;-81
2023/03/23 06:55:51;;;;;;;1.48;0.95;;;;;;;18.17;61.50;99699.44;20689116;28;20050;-82
2023/03/23 07:05:52;;;;;;;1.13;0.88;;;;;;;18.28;61.43;99723.34;20690675;28;20046;-80
2023/03/23 07:15:57;;;;;;;1.27;0.68;;;;;;;18.19;61.15;99692.03;20710372;28;20046;-80
2023/03/23 07:25:58;;;;;;;1.50;0.50;;;;;;;18.30;61.13;99732.13;20711258;28;20046;-80
2023/03/23 07:36:06;;;;;;;1.52;0.80;;;;;;;18.32;60.91;99748.09;20721665;28;20030;-80
2023/03/23 07:46:09;;;;;;;2.22;0.90;;;;;;;18.33;60.62;99752.47;20703870;28;20045;-80
2023/03/23 07:56:22;;;;;;;2.50;0.80;;;;;;;18.35;60.88;99759.38;20731360;28;20680;-81
2023/03/23 08:06:33;;;;;;;1.40;0.73;;;;;;;18.24;60.80;99754.34;20702505;28;20516;-83
2023/03/23 08:16:56;;;;;;;2.22;0.73;;;;;;;18.38;61.48;99787.88;20725555;28;20046;-82
2023/03/23 08:27:15;;;;;;;2.88;1.05;;;;;;;18.38;62.31;99794.09;20727679;28;20042;-83
2023/03/23 08:37:16;;;;;;;2.03;0.80;;;;;;;18.31;62.68;99771.50;20746257;28;20395;-81
2023/03/23 08:47:36;;;;;;;3.47;1.23;;;;;;;18.41;63.37;99771.38;20715557;28;20042;-85
2023/03/23 08:57:55;;;;;;;3.63;1.40;;;;;;;18.43;63.74;99800.81;20725737;28;20038;-85
2023/03/23 09:08:19;;;;;;;5.45;1.92;;;;;;;18.45;65.05;99809.59;20692336;28;20132;-85
2023/03/23 09:18:20;;;;;;;4.30;1.25;;;;;;;18.46;65.95;99820.22;20734495;28;20050;-83
2023/03/23 09:28:21;;;;;;;2.85;1.30;;;;;;;18.46;65.59;99822.03;20740299;28;20541;-83
2023/03/23 09:38:22;;;;;;;4.43;1.40;;;;;;;18.35;65.29;99821.38;20713857;28;20038;-83
2023/03/23 09:48:32;;;;;;;4.10;1.92;;;;;;;18.47;65.02;99837.22;20740186;28;20038;-81
2023/03/23 09:59:14;;;;;;;3.42;1.30;;;;;;;18.47;64.66;99845.28;20722556;28;20069;-84
2023/03/23 10:09:17;;;;;;;2.95;1.25;;;;;;;18.46;64.25;99852.56;20719208;28;20061;-85
2023/03/23 10:19:35;;;;;;;4.38;1.50;;;;;;;18.46;63.94;99849.00;20691317;28;20507;-90
2023/03/23 10:29:39;;;;;;;3.45;1.38;;;;;;;18.46;63.59;99865.16;20693728;28;20045;-85
2023/03/23 10:39:58;;;;;;;8.00;1.97;;;;;;;18.44;63.04;99861.78;20692908;28;20061;-85
2023/03/23 10:50:02;;;;;;;8.35;2.53;;;;;;;18.35;63.16;99863.66;20720829;28;20065;-86
2023/03/23 11:00:17;;;;;;;8.52;2.15;;;;;;;18.47;62.71;99872.25;20696651;28;20449;-85
2023/03/23 11:10:25;;;;;;;7.75;2.58;;;;;;;18.46;62.30;99875.94;20667703;28;20241;-86
2023/03/23 11:20:29;;;;;;;8.93;2.03;;;;;;;18.44;62.05;99859.97;20678552;28;20111;-86
2023/03/23 11:30:31;;;;;;;8.05;2.05;;;;;;;18.48;61.71;99871.22;20701920;28;20450;-86
2023/03/23 11:40:33;;;;;;;10.55;2.13;;;;;;;18.35;61.39;99842.91;20758230;28;20142;-86
2023/03/23 11:51:07;;;;;;;6.50;2.20;;;;;;;18.51;61.29;99903.25;20757937;28;20359;-86
2023/03/23 12:01:20;;;;;;;7.75;2.53;;;;;;;18.51;61.19;99897.84;20689005;28;20058;-86
2023/03/23 12:11:40;;;;;;;5.70;2.13;;;;;;;18.51;60.81;99885.22;20643265;28;20050;-86
2023/03/23 12:21:48;;;;;;;6.40;1.80;;;;;;;18.51;60.42;99884.38;20658586;28;20038;-86
2023/03/23 12:31:48;;;;;;;7.53;1.80;;;;;;;18.51;60.07;99895.16;20656376;28;20050;-88
2023/03/23 12:41:55;;;;;;;5.72;1.70;;;;;;;18.51;59.89;99906.78;20756605;28;20042;-86
2023/03/23 12:52:22;;;;;;;4.90;1.83;;;;;;;18.45;60.27;99906.59;20722213;28;20052;-85
2023/03/23 13:02:30;;;;;;;6.68;1.88;;;;;;;18.41;60.13;99901.53;20733776;28;20141;-82
2023/03/23 13:12:32;;;;;;;5.70;1.70;;;;;;;18.38;60.01;99901.03;20699559;28;20122;-87
2023/03/23 13:23:01;;;;;;;4.85;1.50;;;;;;;18.37;59.84;99885.88;20730796;28;20053;-90
2023/03/23 13:33:06;;;;;;;5.15;1.77;;;;;;;18.36;60.26;99878.81;20721813;28;20056;-88
2023/03/23 13:43:08;;;;;;;3.10;1.30;;;;;;;18.35;59.98;99871.72;20731466;28;20058;-84
2023/03/23 13:53:34;;;;;;;2.67;1.20;;;;;;;18.34;59.91;99887.03;20742549;28;20128;-84
2023/03/23 14:03:38;;;;;;;3.45;1.40;;;;;;;18.34;59.54;99902.34;20732281;28;20050;-87
2023/03/23 14:13:41;;;;;;;3.72;1.40;;;;;;;18.35;59.47;99925.63;20722512;28;20066;-89
2023/03/23 14:23:42;;;;;;;3.38;1.00;;;;;;;18.30;59.20;99922.53;20745976;28;20114;-89
2023/03/23 14:33:43;;;;;;;3.97;1.38;;;;;;;18.31;59.24;99943.94;20726063;28;20065;-91
2023/03/23 14:43:45;;;;;;;3.80;1.30;;;;;;;18.24;59.14;99914.09;20701150;28;20033;-92
2023/03/23 14:53:47;;;;;;;2.05;1.05;;;;;;;18.32;59.34;99910.63;20697398;28;20998;-90
2023/03/23 15:04:02;;;;;;;3.63;1.20;;;;;;;18.30;59.37;99907.25;20728634;28;20089;-89
2023/03/23 15:14:16;;;;;;;3.30;1.10;;;;;;;18.29;59.44;99929.81;20715546;28;20434;-87
2023/03/23 15:24:33;;;;;;;3.30;1.23;;;;;;;18.26;59.43;99904.00;20693911;28;20093;-86
2023/03/23 15:34:39;;;;;;;2.13;1.08;;;;;;;18.17;59.39;99864.59;20732536;28;20046;-92
2023/03/23 15:44:39;;;;;;;3.38;1.38;;;;;;;18.21;59.35;99862.44;20714145;28;20088;-90
2023/03/23 15:54:47;;;;;;;3.40;1.20;;;;;;;18.23;59.09;99880.09;20744173;28;20037;-89
2023/03/23 16:04:49;;;;;;;2.03;0.95;;;;;;;18.24;59.27;99864.78;20732808;28;20583;-85
2023/03/23 16:14:52;;;;;;;3.03;1.33;;;;;;;18.19;59.24;99862.56;20718017;28;20050;-85
2023/03/23 16:24:54;;;;;;;5.47;1.85;;;;;;;18.32;59.35;99880.97;20698013;28;20647;-86
2023/03/23 16:34:55;;;;;;;4.38;1.80;;;;;;;18.46;59.92;99882.19;20698791;28;20053;-85
2023/03/23 16:44:57;;;;;;;5.47;2.20;;;;;;;18.52;60.59;99883.38;20703336;28;20046;-81
2023/03/23 16:54:59;;;;;;;6.68;2.38;;;;;;;18.41;60.58;99858.41;20750761;28;20104;-82
2023/03/23 17:05:01;;;;;;;6.93;2.25;;;;;;;18.29;60.54;99894.78;20752897;28;20099;-82
2023/03/23 17:15:05;;;;;;;3.25;1.63;;;;;;;18.29;60.66;99919.03;20750546;28;20042;-82
2023/03/23 17:25:08;;;;;;;3.57;1.53;;;;;;;18.25;60.47;99912.28;20750798;28;20129;-82
2023/03/23 17:35:09;;;;;;;5.47;1.73;;;;;;;18.17;60.57;99894.22;20732269;28;20104;-82
2023/03/23 17:45:11;;;;;;;3.50;1.70;;;;;;;18.11;60.69;99895.69;20748231;28;20050;-82
2023/03/23 17:55:13;;;;;;;3.67;1.70;;;;;;;18.16;60.73;99902.47;20750125;28;20506;-82
2023/03/23 18:05:15;;;;;;;2.22;1.10;;;;;;;18.14;60.58;99897.25;20746612;28;20041;-82
2023/03/23 18:15:17;;;;;;;4.40;1.70;;;;;;;18.13;60.71;99883.97;20746280;28;20046;-82
2023/03/23 18:25:19;;;;;;;2.97;1.40;;;;;;;18.11;60.69;99874.16;20746525;28;20050;-82
2023/03/23 18:35:20;;;;;;;3.13;1.20;;;;;;;18.10;60.70;99888.63;20744454;28;20038;-82
2023/03/23 18:45:22;;;;;;;2.97;1.33;;;;;;;18.10;60.76;99863.56;20744724;28;20511;-82
2023/03/23 18:55:24;;;;;;;2.65;1.40;;;;;;;18.05;61.03;99834.41;20745852;28;20092;-82
2023/03/23 19:05:27;;;;;;;2.00;0.95;;;;;;;18.09;60.68;99841.16;20742995;28;20050;-82
2023/03/23 19:15:30;;;;;;;2.53;1.02;;;;;;;18.07;60.71;99832.41;20744380;28;20505;-81
2023/03/23 19:25:32;;;;;;;2.58;1.00;;;;;;;17.95;60.90;99814.84;20723974;28;20042;-82
2023/03/23 19:35:34;;;;;;;2.72;1.10;;;;;;;17.96;60.80;99806.59;20739804;28;20406;-82
2023/03/23 19:45:37;;;;;;;1.80;0.90;;;;;;;18.07;60.75;99807.34;20757047;28;20096;-81
2023/03/23 19:55:38;;;;;;;2.03;1.08;;;;;;;17.99;60.83;99794.66;20737634;28;20042;-82
2023/03/23 20:05:40;;;;;;;1.63;0.90;;;;;;;18.07;61.05;99785.78;20754347;28;20052;-81
2023/03/23 20:15:42;;;;;;;2.60;1.10;;;;;;;18.06;60.95;99778.72;20752943;28;20109;-81
2023/03/23 20:25:44;;;;;;;1.85;1.08;;;;;;;18.06;61.10;99774.16;20729870;28;20061;-81
2023/03/23 20:35:47;;;;;;;2.35;1.00;;;;;;;18.06;61.03;99767.94;20743755;28;20042;-81
2023/03/23 20:45:49;;;;;;;2.55;0.90;;;;;;;17.90;61.36;99736.41;20745927;28;20054;-81
2023/03/23 20:55:52;;;;;;;1.42;0.90;;;;;;;18.05;61.45;99750.94;20745021;28;20042;-81
2023/03/23 21:05:54;;;;;;;1.27;0.80;;;;;;;17.96;61.78;99731.22;20749642;28;20049;-82
2023/03/23 21:15:56;;;;;;;1.60;0.85;;;;;;;18.02;61.70;99707.34;20746905;28;20045;-82
2023/03/23 21:26:00;;;;;;;1.40;0.82;;;;;;;17.94;61.98;99668.59;20749052;28;20049;-82
2023/03/23 21:36:02;;;;;;;1.83;0.97;;;;;;;18.04;61.93;99668.44;20739816;28;20046;-82
2023/03/23 21:46:07;;;;;;;2.20;1.00;;;;;;;17.53;61.98;99582.41;20731811;28;20054;-82
2023/03/23 21:56:10;;;;;;;1.73;0.90;;;;;;;18.01;62.23;99638.34;20725699;28;20041;-82
2023/03/23 22:06:14;;;;;;;2.17;1.38;;;;;;;17.98;62.22;99624.16;20719765;28;20157;-81
2023/03/23 22:16:18;;;;;;;1.83;0.90;;;;;;;18.03;62.52;99618.28;20721805;28;20129;-81
2023/03/23 22:26:20;;;;;;;1.90;1.10;;;;;;;18.03;62.37;99595.91;20735260;28;20104;-81
2023/03/23 22:36:24;;;;;;;1.20;0.85;;;;;;;17.91;62.48;99545.09;20732376;28;20049;-81
2023/03/23 22:46:26;;;;;;;1.50;0.90;;;;;;;18.04;62.85;99554.50;20727527;28;20046;-82
2023/03/23 22:56:28;;;;;;;2.10;1.00;;;;;;;17.85;62.80;99499.97;20726015;28;20092;-81
2023/03/23 23:06:30;;;;;;;2.10;1.00;;;;;;;17.94;62.87;99490.03;20716623;28;20081;-81
2023/03/23 23:16:32;;;;;;;1.52;0.90;;;;;;;17.96;62.83;99478.09;20749229;28;20048;-81
2023/03/23 23:26:33;;;;;;;1.45;1.27;;;;;;;18.01;62.75;99474.91;20750775;28;20045;-81
2023/03/23 23:36:36;;;;;;;1.25;0.90;;;;;;;17.80;62.88;99425.13;20748349;28;20121;-81
2023/03/23 23:46:38;;;;;;;2.00;1.02;;;;;;;18.00;63.16;99456.22;20752854;28;20129;-81
2023/03/23 23:56:40;;;;;;;1.20;0.70;;;;;;;18.01;63.14;99447.97;20745388;28;20041;-81
